Weather at Litoměřice

Public forecast

Using degrees Celsius for public forecast. Weather courtesy of forecast.io.

Closest aviation weather report (METAR) to Litoměřice

Closest report is Vodochody Airport, 20.3 nm (37.5 km) SSE. Retrieved 2020/12/04 10:00 UTC (18 minutes ago):

LKVO 041000Z 11008KT 9999 BKN021 03/01 Q0996 R28/7201//

Closest aviation forecast (TAF) to Litoměřice

Closest forecast is Václav Havel Airport Prague, 25.7 nm (47.6 km) S. Retrieved 2020/12/04 06:06 UTC (4 hours ago):

TAF LKPR 040500Z 0406/0512 12006KT 9000 OVC012 TEMPO 0406/0408 4000 BR BKN009 TEMPO 0408/0412 BKN016 BECMG 0412/0414 CAVOK TEMPO 0417/0500 2500 BR SCT004 BECMG 0504/0506 15013KT